Time;durP1;ratioP1;P1;durP2;ratioP2;P2;SDS_P1;SDS_P2;PMS_P1;PMS_P2;Temp;Humidity;BMP_temperature;BMP_pressure;BME280_temperature;BME280_humidity;BME280_pressure;Samples;Min_cycle;Max_cycle;Signal;HPM_P1;HPM_P2
2022/05/21 00:01:41;;;;;;;4.57;3.08;;;;;;;9.84;100.00;101636.25;4959170;28;20050;-73
2022/05/21 00:04:07;;;;;;;6.47;2.92;;;;;;;9.74;100.00;101632.72;4967245;28;20318;-73
2022/05/21 00:06:33;;;;;;;10.07;3.05;;;;;;;9.72;100.00;101629.34;4962011;28;20546;-73
2022/05/21 00:08:58;;;;;;;9.18;3.80;;;;;;;9.71;100.00;101631.13;4960515;28;20114;-73
2022/05/21 00:11:24;;;;;;;7.45;3.53;;;;;;;9.71;100.00;101639.03;4964140;28;20026;-73
2022/05/21 00:13:49;;;;;;;7.30;3.45;;;;;;;9.76;100.00;101638.69;4967924;28;20372;-73
2022/05/21 00:16:15;;;;;;;6.57;3.97;;;;;;;9.74;100.00;101640.63;4964219;28;20539;-73
2022/05/21 00:18:41;;;;;;;11.85;4.57;;;;;;;9.66;100.00;101634.16;4965305;28;20031;-73
2022/05/21 00:21:06;;;;;;;7.82;3.95;;;;;;;9.65;100.00;101640.41;4962877;28;20545;-74
2022/05/21 00:23:34;;;;;;;8.10;3.80;;;;;;;9.63;100.00;101625.69;4959533;28;20487;-73
2022/05/21 00:26:13;;;;;;;9.40;3.88;;;;;;;9.57;100.00;101616.47;4966591;28;20031;-74
2022/05/21 00:28:41;;;;;;;10.88;3.80;;;;;;;9.71;100.00;101633.78;4960963;28;20372;-74
2022/05/21 00:31:09;;;;;;;6.18;4.25;;;;;;;9.71;100.00;101625.03;4969158;28;20030;-74
2022/05/21 00:33:35;;;;;;;6.03;3.50;;;;;;;9.65;100.00;101614.03;4965973;28;20041;-74
2022/05/21 00:36:01;;;;;;;11.98;4.53;;;;;;;9.69;100.00;101617.28;4976488;28;20065;-74
2022/05/21 00:38:27;;;;;;;6.57;3.63;;;;;;;9.57;100.00;101598.00;4965212;28;20038;-74
2022/05/21 00:40:53;;;;;;;7.88;3.78;;;;;;;9.66;100.00;101614.88;4947653;28;20123;-74
2022/05/21 00:43:40;;;;;;;9.27;4.55;;;;;;;9.68;100.00;101615.59;4963695;28;20549;-74
2022/05/21 00:46:19;;;;;;;8.30;4.53;;;;;;;9.66;100.00;101617.50;4983750;28;20039;-73
2022/05/21 00:48:49;;;;;;;10.75;4.63;;;;;;;9.55;100.00;101594.66;4982336;28;20083;-73
2022/05/21 00:51:20;;;;;;;9.82;4.50;;;;;;;9.68;100.00;101612.94;4982589;28;20113;-73
2022/05/21 00:53:47;;;;;;;7.50;4.32;;;;;;;9.66;100.00;101599.06;4963660;28;20022;-73
2022/05/21 00:56:14;;;;;;;8.50;4.63;;;;;;;9.71;100.00;101612.69;4987712;28;20113;-73
2022/05/21 01:01:30;;;;;;;9.43;5.43;;;;;;;9.80;100.00;101614.59;4988613;28;20045;-73
2022/05/21 01:03:55;;;;;;;14.45;6.47;;;;;;;9.86;100.00;101607.97;4999664;28;20484;-73
2022/05/21 01:06:21;;;;;;;10.13;7.05;;;;;;;9.86;100.00;101613.22;4994024;28;20042;-73
2022/05/21 01:08:47;;;;;;;14.52;7.13;;;;;;;9.91;100.00;101607.56;4974403;28;20105;-73
2022/05/21 01:11:16;;;;;;;16.70;6.75;;;;;;;9.94;100.00;101615.25;4992829;28;20030;-74
2022/05/21 01:13:45;;;;;;;11.75;7.18;;;;;;;10.00;100.00;101609.47;4979936;28;20030;-74
2022/05/21 01:16:10;;;;;;;16.83;8.82;;;;;;;10.03;100.00;101602.13;4979305;28;20429;-73
2022/05/21 01:18:36;;;;;;;12.43;7.47;;;;;;;10.08;100.00;101602.59;4973465;28;20057;-73
2022/05/21 01:21:01;;;;;;;15.85;9.75;;;;;;;10.23;100.00;101608.34;4988440;28;20038;-73
2022/05/21 01:23:27;;;;;;;17.35;9.32;;;;;;;10.16;100.00;101577.38;4995671;28;20061;-73
2022/05/21 01:25:56;;;;;;;15.05;9.45;;;;;;;10.38;100.00;101605.44;4992033;28;20038;-73
2022/05/21 01:28:25;;;;;;;20.83;9.77;;;;;;;10.43;100.00;101600.59;4973227;28;20019;-73
2022/05/21 01:30:56;;;;;;;21.60;10.63;;;;;;;10.46;100.00;101600.34;4993869;28;20497;-73
2022/05/21 01:33:26;;;;;;;19.52;10.07;;;;;;;10.43;100.00;101580.34;4993260;28;20061;-73
2022/05/21 01:35:52;;;;;;;16.52;9.48;;;;;;;10.55;100.00;101594.28;4994963;28;20051;-74
2022/05/21 01:38:20;;;;;;;21.30;12.50;;;;;;;10.58;100.00;101593.19;4992779;28;20045;-73
2022/05/21 01:40:46;;;;;;;21.35;11.13;;;;;;;10.59;100.00;101595.69;4996397;28;20441;-74
2022/05/21 01:45:57;;;;;;;20.95;11.55;;;;;;;10.53;100.00;101563.72;4995190;28;20077;-73
2022/05/21 01:48:25;;;;;;;22.02;11.48;;;;;;;10.60;100.00;101576.22;4983334;28;20398;-74
2022/05/21 01:50:52;;;;;;;19.13;10.52;;;;;;;10.56;100.00;101574.84;4994184;28;20030;-74
2022/05/21 01:53:19;;;;;;;19.35;10.13;;;;;;;10.57;100.00;101587.06;4993586;28;20118;-74
2022/05/21 01:55:46;;;;;;;23.67;12.10;;;;;;;10.72;100.00;101597.28;4967468;28;20031;-73
2022/05/21 01:58:11;;;;;;;25.60;12.57;;;;;;;10.66;100.00;101578.34;4984075;28;20058;-74
2022/05/21 02:00:37;;;;;;;17.88;11.35;;;;;;;10.69;100.00;101582.53;4985047;28;20479;-74
2022/05/21 02:03:03;;;;;;;23.20;11.32;;;;;;;10.75;100.00;101586.44;4996181;28;20026;-73
2022/05/21 02:05:29;;;;;;;19.45;9.73;;;;;;;10.74;100.00;101582.16;4992310;28;20041;-74
2022/05/21 02:07:54;;;;;;;22.75;11.40;;;;;;;10.79;100.00;101585.22;4996587;28;20037;-74
2022/05/21 02:10:20;;;;;;;22.33;13.10;;;;;;;10.74;100.00;101568.94;4995728;28;20030;-74
2022/05/21 02:12:45;;;;;;;22.02;12.38;;;;;;;10.94;100.00;101589.16;4994922;28;20088;-74
2022/05/21 02:15:11;;;;;;;21.90;12.00;;;;;;;10.97;100.00;101586.22;4994083;28;20039;-74
2022/05/21 02:17:36;;;;;;;20.50;13.00;;;;;;;11.04;100.00;101583.88;4993608;28;20030;-73
2022/05/21 02:20:03;;;;;;;20.17;12.07;;;;;;;10.97;100.00;101570.38;4992960;28;20034;-73
2022/05/21 02:22:29;;;;;;;25.33;13.32;;;;;;;11.12;100.00;101584.88;4986887;28;20034;-73
2022/05/21 02:24:54;;;;;;;22.15;12.00;;;;;;;11.16;100.00;101587.28;4990063;28;20031;-73
2022/05/21 02:27:20;;;;;;;25.48;13.35;;;;;;;11.18;100.00;101580.06;4992766;28;20461;-73
2022/05/21 02:29:45;;;;;;;20.88;13.68;;;;;;;11.11;100.00;101564.75;4989015;28;20513;-73
2022/05/21 02:32:12;;;;;;;16.80;12.13;;;;;;;11.24;100.00;101575.06;4990898;28;20042;-73
2022/05/21 02:34:39;;;;;;;23.50;13.73;;;;;;;11.19;100.00;101565.84;4983292;28;20147;-73
2022/05/21 02:39:50;;;;;;;20.42;14.48;;;;;;;11.21;100.00;101572.66;4988573;28;20090;-73
2022/05/21 02:45:02;;;;;;;28.45;15.23;;;;;;;11.15;100.00;101561.81;4981912;28;20085;-73
2022/05/21 02:47:28;;;;;;;30.73;15.18;;;;;;;11.15;100.00;101549.47;4991765;28;20125;-73
2022/05/21 02:49:54;;;;;;;29.75;15.93;;;;;;;11.29;100.00;101572.00;4992182;28;20160;-73
2022/05/21 02:52:19;;;;;;;28.95;17.77;;;;;;;11.30;100.00;101576.28;4971168;28;20245;-73
2022/05/21 02:54:44;;;;;;;33.33;16.77;;;;;;;11.31;100.00;101572.69;4988385;28;20433;-73
2022/05/21 02:57:11;;;;;;;26.80;14.15;;;;;;;11.39;100.00;101572.84;4985199;28;20062;-73
2022/05/21 02:59:38;;;;;;;29.88;15.23;;;;;;;11.42;100.00;101575.22;4991018;28;20037;-73
2022/05/21 03:02:04;;;;;;;28.77;15.30;;;;;;;11.42;100.00;101569.94;4990839;28;20015;-73
2022/05/21 03:04:30;;;;;;;25.25;14.02;;;;;;;11.44;100.00;101569.78;4970092;28;20035;-73
2022/05/21 03:06:56;;;;;;;24.30;14.30;;;;;;;11.36;100.00;101551.97;4991770;28;20031;-74
2022/05/21 03:12:07;;;;;;;22.10;12.50;;;;;;;11.49;100.00;101557.81;4993334;28;20517;-73
2022/05/21 03:14:33;;;;;;;23.00;12.82;;;;;;;11.58;100.00;101571.19;4969363;28;20038;-73
2022/05/21 03:17:01;;;;;;;27.90;12.27;;;;;;;11.57;100.00;101565.06;4970522;28;20030;-74
2022/05/21 03:19:31;;;;;;;30.35;13.05;;;;;;;11.51;100.00;101553.22;4991730;28;20065;-73
2022/05/21 03:21:57;;;;;;;24.67;11.20;;;;;;;11.66;100.00;101569.53;4992102;28;20033;-73
2022/05/21 03:24:23;;;;;;;21.80;10.77;;;;;;;11.56;100.00;101546.69;4978705;28;20099;-73
2022/05/21 03:26:49;;;;;;;21.98;9.80;;;;;;;11.72;100.00;101578.72;4988536;28;20069;-74
2022/05/21 03:29:16;;;;;;;20.42;10.25;;;;;;;11.73;100.00;101575.09;4992137;28;20039;-73
2022/05/21 03:31:41;;;;;;;25.02;10.05;;;;;;;11.77;100.00;101579.13;4994508;28;20030;-74
2022/05/21 03:34:06;;;;;;;14.20;8.38;;;;;;;11.78;100.00;101570.22;4997485;28;20178;-74
2022/05/21 03:36:32;;;;;;;22.17;9.13;;;;;;;11.81;100.00;101569.94;4992560;28;20069;-74
2022/05/21 03:38:58;;;;;;;19.70;8.48;;;;;;;11.89;100.00;101570.09;4976902;28;20497;-74
2022/05/21 03:41:25;;;;;;;23.80;8.35;;;;;;;11.86;100.00;101567.69;4990580;28;20526;-74
2022/05/21 03:43:52;;;;;;;18.83;7.35;;;;;;;11.97;100.00;101563.25;4993680;28;20034;-73
2022/05/21 03:46:17;;;;;;;16.52;6.75;;;;;;;11.98;100.00;101568.44;4991923;28;20338;-74
2022/05/21 03:48:42;;;;;;;18.98;6.95;;;;;;;11.89;100.00;101556.88;4994662;28;20030;-74
2022/05/21 03:51:08;;;;;;;20.33;6.30;;;;;;;12.02;100.00;101572.47;4977620;28;20035;-74
2022/05/21 03:53:33;;;;;;;20.00;6.90;;;;;;;12.03;100.00;101576.75;4997216;28;20019;-73
2022/05/21 03:55:59;;;;;;;16.90;5.85;;;;;;;12.04;100.00;101578.44;4991137;28;20486;-73
2022/05/21 03:58:25;;;;;;;12.68;5.05;;;;;;;12.09;100.00;101575.38;4989310;28;20459;-73
2022/05/21 04:00:50;;;;;;;17.85;4.72;;;;;;;12.08;100.00;101573.69;4993496;28;20026;-74
2022/05/21 04:03:16;;;;;;;18.55;5.38;;;;;;;12.11;100.00;101579.53;4995588;28;20026;-74
2022/05/21 04:05:42;;;;;;;14.10;4.40;;;;;;;12.12;100.00;101580.38;4995909;28;20087;-74
2022/05/21 04:08:08;;;;;;;15.90;4.63;;;;;;;12.12;100.00;101580.38;4993837;28;20081;-74
2022/05/21 04:10:34;;;;;;;13.32;4.03;;;;;;;12.08;100.00;101566.56;4996365;28;20026;-74
2022/05/21 04:12:59;;;;;;;17.55;3.92;;;;;;;12.13;100.00;101567.00;4995189;28;20133;-74
2022/05/21 04:15:26;;;;;;;15.30;4.20;;;;;;;12.22;100.00;101575.91;4975323;28;20112;-74
2022/05/21 04:17:54;;;;;;;15.55;5.28;;;;;;;12.14;100.00;101573.13;4977570;28;20026;-74
2022/05/21 04:20:23;;;;;;;9.30;3.70;;;;;;;12.11;100.00;101561.00;4984164;28;20026;-74
2022/05/21 04:22:49;;;;;;;16.42;5.03;;;;;;;12.08;100.00;101558.63;4988852;28;20018;-74
2022/05/21 04:25:14;;;;;;;13.63;3.67;;;;;;;12.30;100.00;101577.81;4994753;28;20121;-74
2022/05/21 04:27:40;;;;;;;12.18;3.05;;;;;;;12.37;100.00;101592.16;4967539;28;20035;-74
2022/05/21 04:30:28;;;;;;;12.75;3.38;;;;;;;12.41;100.00;101585.59;4998197;28;20026;-74
2022/05/21 04:32:54;;;;;;;12.27;2.92;;;;;;;12.35;100.00;101576.41;4990125;28;20225;-74
2022/05/21 04:35:21;;;;;;;16.85;3.53;;;;;;;12.49;100.00;101592.81;4975268;28;20073;-74
2022/05/21 04:37:46;;;;;;;13.63;3.00;;;;;;;12.51;100.00;101590.84;4996888;28;20121;-74
2022/05/21 04:40:17;;;;;;;11.68;2.88;;;;;;;12.39;100.00;101569.03;4994056;28;20576;-74
2022/05/21 04:42:42;;;;;;;11.32;3.20;;;;;;;12.50;100.00;101595.31;4995790;28;20026;-73
2022/05/21 04:45:09;;;;;;;8.85;3.00;;;;;;;12.45;100.00;101580.84;4992324;28;20039;-73
2022/05/21 04:47:35;;;;;;;9.70;2.55;;;;;;;12.48;100.00;101599.09;4986707;28;20038;-73
2022/05/21 04:50:00;;;;;;;11.68;2.83;;;;;;;12.53;100.00;101592.38;4992838;28;20410;-73
2022/05/21 04:52:26;;;;;;;13.40;3.60;;;;;;;12.50;100.00;101578.63;4968053;28;20039;-73
2022/05/21 04:54:51;;;;;;;8.88;2.60;;;;;;;12.62;100.00;101598.63;5001968;28;20029;-73
2022/05/21 04:57:16;;;;;;;7.38;2.60;;;;;;;12.67;100.00;101606.97;4987489;28;20045;-73
2022/05/21 04:59:42;;;;;;;8.50;2.28;;;;;;;12.71;100.00;101599.56;4950145;28;20034;-73
2022/05/21 05:02:08;;;;;;;8.40;2.40;;;;;;;12.74;100.00;101596.63;4990400;28;20070;-73
2022/05/21 05:04:33;;;;;;;8.85;1.98;;;;;;;12.80;100.00;101601.34;4986808;28;20027;-73
2022/05/21 05:06:59;;;;;;;10.95;1.92;;;;;;;12.91;100.00;101600.31;4989460;28;20043;-73
2022/05/21 05:09:24;;;;;;;13.75;2.35;;;;;;;12.97;100.00;101603.19;4989273;28;20038;-73
2022/05/21 05:11:51;;;;;;;9.02;2.42;;;;;;;13.02;100.00;101605.44;4983884;28;20034;-73
2022/05/21 05:14:17;;;;;;;10.32;2.63;;;;;;;13.00;100.00;101596.81;4990143;28;20030;-73
2022/05/21 05:16:42;;;;;;;4.30;1.88;;;;;;;13.13;100.00;101617.63;4991394;28;20018;-73
2022/05/21 05:19:08;;;;;;;6.32;2.08;;;;;;;13.17;100.00;101619.84;4972078;28;20134;-73
2022/05/21 05:21:33;;;;;;;10.13;2.92;;;;;;;13.04;100.00;101611.41;4988192;28;20033;-72
2022/05/21 05:23:58;;;;;;;10.73;2.30;;;;;;;13.10;100.00;101625.88;4990344;28;20066;-73
2022/05/21 05:26:24;;;;;;;8.63;1.92;;;;;;;13.12;100.00;101623.91;4981319;28;20114;-73
2022/05/21 05:28:50;;;;;;;8.20;1.88;;;;;;;13.14;100.00;101629.91;5004935;28;20029;-73
2022/05/21 05:31:15;;;;;;;5.18;1.77;;;;;;;13.11;100.00;101636.34;4987562;28;20031;-73
2022/05/21 05:33:41;;;;;;;8.75;2.15;;;;;;;13.06;100.00;101633.28;4986552;28;20027;-73
2022/05/21 05:36:07;;;;;;;12.90;2.22;;;;;;;13.25;100.00;101642.13;4990795;28;20050;-73
2022/05/21 05:38:32;;;;;;;12.93;2.60;;;;;;;13.33;100.00;101639.63;4988234;28;20045;-73
2022/05/21 05:40:58;;;;;;;11.88;2.97;;;;;;;13.36;100.00;101644.59;4988820;28;20027;-73
2022/05/21 05:43:24;;;;;;;7.18;2.25;;;;;;;13.34;100.00;101641.25;4982493;28;20460;-73
2022/05/21 05:45:51;;;;;;;12.70;4.18;;;;;;;13.43;100.00;101650.16;4992952;28;20030;-73
2022/05/21 05:48:19;;;;;;;5.25;2.05;;;;;;;13.37;100.00;101641.00;4987567;28;20034;-74
2022/05/21 05:50:45;;;;;;;13.80;2.88;;;;;;;13.42;100.00;101648.50;4987218;28;20038;-73
2022/05/21 05:53:10;;;;;;;8.25;2.08;;;;;;;13.46;100.00;101656.00;4990268;28;20094;-74
2022/05/21 05:55:38;;;;;;;9.27;2.67;;;;;;;13.41;100.00;101637.03;4980494;28;20361;-72
2022/05/21 05:59:48;;;;;;;9.75;2.25;;;;;;;13.45;99.96;101643.72;4985308;28;20469;-74
2022/05/21 06:00:49;;;;;;;11.00;2.83;;;;;;;13.48;99.28;101656.69;4986697;28;20130;-72
2022/05/21 06:03:15;;;;;;;6.90;2.03;;;;;;;13.51;99.08;101656.38;4981808;28;20098;-74
2022/05/21 06:05:40;;;;;;;10.07;1.60;;;;;;;13.43;98.82;101624.47;4991593;28;20076;-74
2022/05/21 06:08:07;;;;;;;4.75;1.70;;;;;;;13.70;98.00;101667.84;4950942;28;20038;-74
2022/05/21 06:10:36;;;;;;;11.52;1.83;;;;;;;13.81;97.38;101659.66;4989135;28;20049;-74
2022/05/21 06:13:03;;;;;;;8.00;2.00;;;;;;;13.93;96.74;101674.34;4993604;28;20026;-74
2022/05/21 06:15:28;;;;;;;11.23;2.25;;;;;;;13.93;96.52;101669.03;4964892;28;20143;-74
2022/05/21 06:17:54;;;;;;;9.35;2.30;;;;;;;13.98;96.36;101673.94;4954549;28;20055;-75
2022/05/21 06:20:22;;;;;;;7.47;1.95;;;;;;;14.06;95.04;101663.34;4991096;28;20041;-74
2022/05/21 06:22:49;;;;;;;8.35;3.13;;;;;;;14.20;95.05;101677.94;4978542;28;20022;-74
2022/05/21 06:25:18;;;;;;;14.23;2.58;;;;;;;14.39;94.63;101680.41;4992025;28;20042;-74
2022/05/21 06:27:48;;;;;;;8.95;2.00;;;;;;;14.53;93.47;101676.34;4993836;28;20036;-75
2022/05/21 06:30:15;;;;;;;14.57;2.88;;;;;;;14.63;92.94;101672.78;4986418;28;20033;-75
2022/05/21 06:32:40;;;;;;;14.95;2.30;;;;;;;14.71;91.70;101678.97;4990871;28;20065;-75
2022/05/21 06:35:07;;;;;;;6.53;2.15;;;;;;;14.98;90.53;101695.72;4961323;28;20031;-74
2022/05/21 06:37:32;;;;;;;11.68;2.50;;;;;;;14.92;89.38;101662.66;4989411;28;20081;-75
2022/05/21 06:39:58;;;;;;;15.70;2.72;;;;;;;15.07;88.77;101673.53;4943084;28;20043;-75
2022/05/21 06:42:23;;;;;;;11.30;2.25;;;;;;;15.18;89.76;101686.53;4992194;28;20034;-75
2022/05/21 06:44:50;;;;;;;11.75;2.58;;;;;;;15.05;88.96;101696.78;4987816;28;20081;-75
2022/05/21 06:47:16;;;;;;;13.07;2.78;;;;;;;15.11;89.13;101705.94;4988579;28;20026;-75
2022/05/21 06:49:41;;;;;;;11.38;1.65;;;;;;;15.37;88.97;101696.09;4957326;28;20031;-75
2022/05/21 06:52:07;;;;;;;7.05;2.88;;;;;;;15.59;88.31;101705.31;4971558;28;20031;-75
2022/05/21 06:54:32;;;;;;;10.32;2.42;;;;;;;16.24;86.18;101696.63;4965551;28;20398;-75
2022/05/21 06:56:58;;;;;;;6.65;2.03;;;;;;;16.13;83.52;101696.09;4960569;28;20022;-75
2022/05/21 06:59:24;;;;;;;13.02;3.17;;;;;;;15.98;83.23;101715.41;4974083;28;20031;-75
2022/05/21 07:01:49;;;;;;;8.65;2.00;;;;;;;15.94;84.23;101703.41;4992279;28;20084;-75
2022/05/21 07:04:15;;;;;;;5.65;1.70;;;;;;;15.75;83.56;101712.53;4982059;28;20027;-75
2022/05/21 07:09:27;;;;;;;9.55;1.67;;;;;;;15.91;83.88;101725.03;4972936;28;20520;-75
2022/05/21 07:11:53;;;;;;;13.27;2.13;;;;;;;15.90;83.24;101738.53;4995078;28;20283;-75
2022/05/21 07:14:19;;;;;;;7.25;2.08;;;;;;;16.57;81.86;101730.38;4993090;28;20026;-75
2022/05/21 07:16:45;;;;;;;7.93;1.65;;;;;;;16.84;80.01;101735.38;4966695;28;20063;-75
2022/05/21 07:19:11;;;;;;;7.53;2.42;;;;;;;17.25;79.21;101729.94;4990152;28;20022;-75
2022/05/21 07:21:37;;;;;;;12.20;2.10;;;;;;;17.77;77.30;101730.34;4974429;28;20034;-75
2022/05/21 07:24:03;;;;;;;7.90;1.95;;;;;;;18.38;74.42;101725.97;4972031;28;20034;-75
2022/05/21 07:26:29;;;;;;;6.22;1.50;;;;;;;18.26;72.61;101728.22;4994018;28;20085;-75
2022/05/21 07:28:56;;;;;;;9.35;2.05;;;;;;;18.61;72.94;101754.50;4975643;28;20018;-75
2022/05/21 07:31:22;;;;;;;6.32;1.70;;;;;;;19.22;71.08;101755.22;4989899;28;20041;-75
2022/05/21 07:33:47;;;;;;;7.55;2.25;;;;;;;18.91;71.39;101753.56;4993885;28;20290;-75
2022/05/21 07:36:13;;;;;;;8.07;1.52;;;;;;;19.02;70.99;101762.97;4975182;28;20054;-75
2022/05/21 07:38:38;;;;;;;6.07;1.45;;;;;;;19.43;69.79;101746.44;4995663;28;20101;-75
2022/05/21 07:41:04;;;;;;;8.18;1.73;;;;;;;19.81;68.85;101766.91;4976362;28;20038;-75
2022/05/21 07:43:30;;;;;;;10.57;2.05;;;;;;;19.71;67.52;101773.38;4982598;28;20046;-75
2022/05/21 07:46:00;;;;;;;11.10;1.65;;;;;;;19.46;69.57;101778.19;4984895;28;20018;-75
2022/05/21 07:48:27;;;;;;;5.75;1.73;;;;;;;20.25;67.58;101763.22;4988925;28;20394;-75
2022/05/21 07:50:56;;;;;;;9.05;1.88;;;;;;;21.41;67.61;101773.59;4960082;28;20073;-75
2022/05/21 07:53:25;;;;;;;6.68;1.52;;;;;;;21.11;64.66;101777.34;4979515;28;20596;-75
2022/05/21 07:55:52;;;;;;;6.90;1.30;;;;;;;20.95;63.20;101781.19;4979520;28;20031;-75
2022/05/21 07:58:19;;;;;;;6.28;1.67;;;;;;;20.61;63.33;101791.84;4969098;28;20026;-75
2022/05/21 08:00:44;;;;;;;4.50;1.27;;;;;;;20.50;66.06;101780.59;4989655;28;20033;-75
2022/05/21 08:03:10;;;;;;;5.15;1.55;;;;;;;21.24;63.55;101781.16;4976802;28;20034;-75
2022/05/21 08:05:37;;;;;;;9.52;2.13;;;;;;;20.63;64.19;101779.06;4989709;28;20030;-75
2022/05/21 08:08:04;;;;;;;5.03;1.52;;;;;;;20.97;64.66;101791.72;4988495;28;20033;-75
2022/05/21 08:10:30;;;;;;;6.53;1.42;;;;;;;21.11;61.51;101787.25;4985618;28;20031;-75
2022/05/21 08:12:56;;;;;;;5.97;1.20;;;;;;;21.26;61.82;101800.56;4960720;28;20857;-75
2022/05/21 08:15:22;;;;;;;7.53;1.63;;;;;;;21.67;61.48;101803.28;4974067;28;20030;-75
2022/05/21 08:17:48;;;;;;;4.95;1.17;;;;;;;21.86;61.64;101795.50;4975185;28;20034;-75
2022/05/21 08:20:14;;;;;;;5.47;1.42;;;;;;;21.64;60.67;101792.94;4988635;28;20083;-75
2022/05/21 08:28:09;;;;;;;7.55;2.03;;;;;;;20.95;61.95;101816.06;4972436;28;20101;-75
2022/05/21 08:30:35;;;;;;;7.70;1.60;;;;;;;21.07;62.59;101808.28;4980396;28;20034;-74
2022/05/21 08:33:04;;;;;;;9.98;1.88;;;;;;;22.03;59.70;101818.28;5000819;28;20102;-74
2022/05/21 08:35:30;;;;;;;7.78;1.35;;;;;;;22.62;59.57;101816.75;4976899;28;20046;-75
2022/05/21 08:37:56;;;;;;;7.65;1.80;;;;;;;22.75;58.20;101810.53;4972896;28;20062;-75
2022/05/21 08:40:23;;;;;;;6.13;1.60;;;;;;;22.70;58.08;101823.81;4974911;28;20483;-75
2022/05/21 08:42:55;;;;;;;6.03;1.75;;;;;;;22.93;58.27;101815.28;4967229;28;20054;-75
2022/05/21 08:46:00;;;;;;;8.50;1.30;;;;;;;22.39;58.57;101817.97;4962527;28;20033;-75
2022/05/21 08:48:31;;;;;;;5.00;1.30;;;;;;;22.05;58.12;101816.22;4973853;28;20540;-75
2022/05/21 08:50:57;;;;;;;;;;;;;;;21.76;59.13;101830.81;4983744;28;20034;-75
2022/05/21 08:53:26;;;;;;;5.47;1.95;;;;;;;21.36;59.72;101828.72;4994894;28;19921;-75
2022/05/21 08:55:55;;;;;;;6.40;1.42;;;;;;;21.68;59.51;101831.78;4979638;28;20049;-75
2022/05/21 08:58:31;;;;;;;6.55;1.50;;;;;;;21.37;60.07;101835.75;4989094;28;20022;-75
2022/05/21 09:00:57;;;;;;;8.15;1.70;;;;;;;22.79;57.74;101838.69;4979214;28;20042;-75
2022/05/21 09:03:24;;;;;;;4.75;1.20;;;;;;;22.10;58.75;101837.97;4985149;28;20025;-75
2022/05/21 09:06:21;;;;;;;6.20;1.25;;;;;;;22.43;59.72;101834.56;4983382;28;20117;-75
2022/05/21 09:09:02;;;;;;;6.80;1.77;;;;;;;23.20;58.82;101835.78;4981600;28;20085;-75
2022/05/21 09:11:56;;;;;;;7.78;1.63;;;;;;;23.54;56.15;101838.41;4978397;28;20105;-75
2022/05/21 09:14:30;;;;;;;5.97;1.30;;;;;;;22.97;57.84;101846.16;4984949;28;20023;-75
2022/05/21 09:16:56;;;;;;;4.93;1.33;;;;;;;22.66;56.87;101836.00;4983068;28;20027;-75
2022/05/21 09:19:23;;;;;;;6.47;1.45;;;;;;;22.55;57.46;101856.28;4964489;28;20041;-75
2022/05/21 09:21:50;;;;;;;7.57;2.10;;;;;;;22.41;57.13;101854.59;4980446;28;20039;-75
2022/05/21 09:24:45;;;;;;;5.60;1.42;;;;;;;22.08;58.12;101858.84;4975946;28;20023;-75
2022/05/21 09:27:33;;;;;;;6.55;1.55;;;;;;;22.83;55.66;101861.47;4987418;28;20139;-75
2022/05/21 09:30:20;;;;;;;8.88;2.00;;;;;;;22.51;56.38;101863.09;4963691;28;20061;-75
2022/05/21 09:32:49;;;;;;;5.78;1.33;;;;;;;23.00;57.67;101868.13;4980165;28;20609;-75
2022/05/21 09:35:18;;;;;;;5.57;1.27;;;;;;;23.27;55.35;101869.97;4983616;28;20018;-74
2022/05/21 09:37:44;;;;;;;8.20;1.77;;;;;;;23.17;56.64;101878.50;4980230;28;20153;-74
2022/05/21 09:40:22;;;;;;;3.97;1.20;;;;;;;22.85;56.04;101867.47;4979261;28;20046;-74
2022/05/21 09:45:34;;;;;;;10.25;1.83;;;;;;;21.53;60.23;101877.59;4982558;28;20040;-74
2022/05/21 09:48:06;;;;;;;8.95;1.42;;;;;;;21.36;60.49;101879.75;4959624;28;20054;-74
2022/05/21 09:50:58;;;;;;;5.38;1.60;;;;;;;21.80;60.74;101877.75;4979016;28;20429;-74
2022/05/21 09:53:36;;;;;;;8.90;1.38;;;;;;;22.73;56.29;101883.44;4960338;28;20407;-74
2022/05/21 09:56:19;;;;;;;7.10;1.05;;;;;;;22.47;57.73;101884.22;4983492;28;20088;-74
2022/05/21 09:58:46;;;;;;;9.27;1.35;;;;;;;23.28;55.75;101888.63;4987385;28;20014;-75
2022/05/21 10:01:15;;;;;;;8.80;1.58;;;;;;;23.87;55.11;101883.31;4982324;28;20042;-74
2022/05/21 10:03:50;;;;;;;8.73;1.85;;;;;;;24.72;53.51;101880.38;4963842;28;20014;-74
2022/05/21 10:06:29;;;;;;;7.90;1.50;;;;;;;24.17;54.71;101895.22;4976892;28;20081;-74
2022/05/21 10:11:53;;;;;;;7.07;1.95;;;;;;;23.84;54.79;101894.53;4981411;28;20061;-74
2022/05/21 10:14:32;;;;;;;7.28;1.50;;;;;;;24.17;53.46;101891.66;4963444;28;20023;-74
2022/05/21 10:17:02;;;;;;;4.57;1.27;;;;;;;24.35;53.44;101890.97;4985122;28;20114;-75
2022/05/21 10:19:40;;;;;;;6.78;1.48;;;;;;;23.38;55.09;101902.47;4983201;28;20430;-74
2022/05/21 10:22:32;;;;;;;7.88;1.73;;;;;;;22.51;56.87;101893.50;4977352;28;20034;-74
2022/05/21 10:25:07;;;;;;;5.28;1.58;;;;;;;22.44;57.82;101898.06;4980257;28;20236;-74
2022/05/21 10:27:44;;;;;;;7.65;1.67;;;;;;;22.32;57.69;101900.53;4976005;28;20030;-74
2022/05/21 10:30:35;;;;;;;6.45;1.48;;;;;;;21.40;60.63;101887.41;4978365;28;20101;-74
2022/05/21 10:33:10;;;;;;;6.70;1.40;;;;;;;21.83;60.42;101917.66;4979816;28;20037;-74
2022/05/21 10:36:03;;;;;;;9.57;1.92;;;;;;;21.72;61.03;101913.66;4979530;28;20061;-74
2022/05/21 10:38:41;;;;;;;10.52;2.50;;;;;;;21.92;61.79;101910.25;4976778;28;20456;-74
2022/05/21 10:41:17;;;;;;;8.90;2.08;;;;;;;23.16;58.43;101903.75;4984006;28;20451;-74
2022/05/21 10:43:55;;;;;;;7.88;1.60;;;;;;;23.98;54.45;101912.31;4964408;28;20015;-74
2022/05/21 10:46:52;;;;;;;6.85;1.38;;;;;;;24.07;52.36;101913.72;4985467;28;20031;-74
2022/05/21 10:49:56;;;;;;;5.32;1.30;;;;;;;25.59;51.42;101916.41;4969940;28;20019;-74
2022/05/21 10:52:38;;;;;;;5.15;1.35;;;;;;;26.37;48.83;101922.13;4991945;28;20121;-74
2022/05/21 10:55:24;;;;;;;7.88;1.42;;;;;;;26.07;49.00;101920.25;4990214;28;20125;-74
2022/05/21 10:58:05;;;;;;;9.60;1.48;;;;;;;27.52;46.78;101920.09;4983753;28;20084;-74
2022/05/21 11:00:36;;;;;;;;;;;;;;;26.31;48.85;101921.16;4992693;28;20493;-74
2022/05/21 11:03:22;;;;;;;;;;;;;;;25.91;48.93;101931.66;4983468;28;19913;-74
2022/05/21 11:06:11;;;;;;;4.78;1.45;;;;;;;26.08;50.10;101927.28;4982398;28;19988;-74
2022/05/21 11:09:14;;;;;;;4.35;1.05;;;;;;;25.69;48.74;101932.06;4980765;28;20028;-74
2022/05/21 11:11:58;;;;;;;5.18;1.27;;;;;;;25.63;49.90;101931.13;4982360;28;20397;-74
2022/05/21 11:14:45;;;;;;;5.47;1.30;;;;;;;25.83;49.31;101930.06;4959260;28;20328;-74
2022/05/21 11:17:32;;;;;;;7.00;1.40;;;;;;;25.04;49.76;101927.03;4983477;28;20030;-74
2022/05/21 11:20:14;;;;;;;3.58;1.02;;;;;;;25.08;49.75;101930.16;4981023;28;20078;-74
2022/05/21 11:23:08;;;;;;;5.47;1.50;;;;;;;25.78;50.33;101929.91;4981654;28;20030;-74
2022/05/21 11:26:02;;;;;;;2.58;1.02;;;;;;;26.91;47.60;101935.72;4975789;28;20049;-74
2022/05/21 11:28:40;;;;;;;6.50;1.38;;;;;;;26.58;47.65;101937.06;4986103;28;20027;-74
2022/05/21 11:31:17;;;;;;;7.22;1.40;;;;;;;25.56;49.05;101940.34;4983290;28;20117;-74
2022/05/21 11:39:20;;;;;;;5.35;1.30;;;;;;;24.43;51.51;101948.22;4980173;28;20066;-74
2022/05/21 11:41:58;;;;;;;5.03;1.10;;;;;;;25.86;50.41;101946.66;4984364;28;20496;-74
2022/05/21 11:45:01;;;;;;;4.43;1.20;;;;;;;26.79;47.84;101943.84;4978875;28;20010;-74
2022/05/21 11:47:27;;;;;;;6.25;1.27;;;;;;;26.21;49.14;101951.47;4973059;28;20037;-74
2022/05/21 11:49:59;;;;;;;7.97;1.30;;;;;;;25.47;49.57;101947.09;4979968;28;20174;-74
2022/05/21 11:52:28;;;;;;;6.50;1.40;;;;;;;25.14;51.37;101954.41;4981809;28;20269;-74
2022/05/21 11:54:53;;;;;;;4.38;1.10;;;;;;;25.43;49.50;101952.09;4982813;28;20045;-74
2022/05/21 11:57:37;;;;;;;6.15;1.35;;;;;;;25.34;50.07;101946.16;4982808;28;20042;-74
2022/05/21 12:00:04;;;;;;;6.28;1.40;;;;;;;26.35;49.56;101959.41;4980832;28;20425;-74
2022/05/21 12:02:32;;;;;;;7.32;1.70;;;;;;;26.21;50.75;101954.16;4987347;28;20493;-74